Time,TemperatureF,DewpointF,PressureIn,WindDirection,WindDirectionDegrees,WindSpeedMPH,WindSpeedGustMPH,Humidity,HourlyPrecipIn,Conditions,Clouds,dailyrainin,SoftwareType,DateUTC
2013-02-18 00:02:00,34.0,29.0,29.64,South,174,10.0,16.0,82,0.00,,,0.00,,2013-02-18 06:02:00,
2013-02-18 00:11:00,34.0,29.0,29.64,South,174,10.0,16.0,82,0.00,,,0.00,,2013-02-18 06:11:00,
2013-02-18 00:21:00,33.0,28.0,29.64,South,179,9.0,15.0,82,0.00,,,0.00,,2013-02-18 06:21:00,
2013-02-18 00:32:00,33.0,28.0,29.64,South,170,6.0,12.0,83,0.00,,,0.00,,2013-02-18 06:32:00,
2013-02-18 00:41:00,33.0,28.0,29.64,South,170,6.0,12.0,83,0.00,,,0.00,,2013-02-18 06:41:00,
2013-02-18 00:52:00,34.0,29.0,29.64,SSE,159,8.0,13.0,82,0.00,,,0.00,,2013-02-18 06:52:00,
2013-02-18 01:01:00,34.0,28.0,29.64,SSE,152,8.0,13.0,80,0.00,,,0.00,,2013-02-18 07:01:00,
2013-02-18 01:11:00,34.0,28.0,29.64,SSE,152,8.0,13.0,80,0.00,,,0.00,,2013-02-18 07:11:00,
2013-02-18 01:22:00,34.0,28.0,29.63,SSE,151,8.0,12.0,80,0.00,,,0.00,,2013-02-18 07:22:00,
2013-02-18 01:32:00,34.0,29.0,29.63,South,169,8.0,14.0,81,0.00,,,0.00,,2013-02-18 07:32:00,
2013-02-18 01:42:00,34.0,29.0,29.63,South,169,8.0,14.0,81,0.00,,,0.00,,2013-02-18 07:42:00,
2013-02-18 01:52:00,34.0,29.0,29.63,SSW,196,4.0,10.0,81,0.00,,,0.00,,2013-02-18 07:52:00,
2013-02-18 02:01:00,34.0,29.0,29.64,SSW,197,4.0,9.0,82,0.00,,,0.00,,2013-02-18 08:01:00,
2013-02-18 02:11:00,34.0,29.0,29.64,SSW,197,4.0,9.0,82,0.00,,,0.00,,2013-02-18 08:11:00,
2013-02-18 02:21:00,33.0,28.0,29.63,South,169,4.0,10.0,83,0.00,,,0.00,,2013-02-18 08:21:00,
2013-02-18 02:32:00,33.0,29.0,29.63,WSW,245,3.0,8.0,84,0.00,,,0.00,,2013-02-18 08:32:00,
2013-02-18 02:42:00,33.0,29.0,29.63,WSW,245,3.0,8.0,84,0.00,,,0.00,,2013-02-18 08:42:00,
2013-02-18 02:52:00,33.0,29.0,29.62,South,186,3.0,7.0,85,0.00,,,0.00,,2013-02-18 08:52:00,
2013-02-18 03:02:00,33.0,29.0,29.62,South,176,2.0,6.0,85,0.00,,,0.00,,2013-02-18 09:02:00,
2013-02-18 03:11:00,33.0,29.0,29.62,South,176,2.0,6.0,85,0.00,,,0.00,,2013-02-18 09:11:00,
2013-02-18 03:22:00,32.0,28.0,29.62,SSW,205,3.0,6.0,85,0.00,,,0.00,,2013-02-18 09:22:00,
2013-02-18 03:31:00,32.0,29.0,29.62,SSW,194,4.0,6.0,87,0.00,,,0.00,,2013-02-18 09:31:00,
2013-02-18 03:42:00,32.0,29.0,29.62,SSW,194,4.0,6.0,87,0.00,,,0.00,,2013-02-18 09:42:00,
2013-02-18 03:52:00,32.0,29.0,29.61,South,181,3.0,8.0,87,0.00,,,0.00,,2013-02-18 09:52:00,
2013-02-18 04:01:00,31.0,28.0,29.60,SW,217,1.0,3.0,87,0.00,,,0.00,,2013-02-18 10:01:00,
2013-02-18 04:11:00,31.0,28.0,29.60,SW,217,1.0,3.0,87,0.00,,,0.00,,2013-02-18 10:11:00,
2013-02-18 04:21:00,31.0,28.0,29.59,SSW,207,1.0,3.0,88,0.00,,,0.00,,2013-02-18 10:21:00,
2013-02-18 04:31:00,31.0,28.0,29.59,SSW,207,1.0,3.0,88,0.00,,,0.00,,2013-02-18 10:31:00,
2013-02-18 04:42:00,31.0,28.0,29.59,SSW,207,1.0,3.0,88,0.00,,,0.00,,2013-02-18 10:42:00,
2013-02-18 04:53:00,30.0,27.0,29.59,SW,233,0.0,1.0,89,0.00,,,0.00,,2013-02-18 10:53:00,
2013-02-18 05:01:00,30.0,27.0,29.61,SSE,163,1.0,3.0,90,0.00,,,0.00,,2013-02-18 11:01:00,
2013-02-18 05:11:00,30.0,27.0,29.61,SSE,163,1.0,3.0,90,0.00,,,0.00,,2013-02-18 11:11:00,
2013-02-18 05:22:00,29.0,27.0,29.62,SW,222,0.0,5.0,91,0.00,,,0.00,,2013-02-18 11:22:00,
2013-02-18 05:32:00,30.0,28.0,29.61,SW,222,0.0,1.0,91,0.00,,,0.00,,2013-02-18 11:32:00,
2013-02-18 05:42:00,30.0,28.0,29.61,SW,222,0.0,1.0,91,0.00,,,0.00,,2013-02-18 11:42:00,
2013-02-18 05:53:00,30.0,27.0,29.62,WSW,242,0.0,1.0,90,0.00,,,0.00,,2013-02-18 11:53:00,
2013-02-18 06:02:00,30.0,28.0,29.61,WSW,245,0.0,2.0,92,0.00,,,0.00,,2013-02-18 12:02:00,
2013-02-18 06:11:00,30.0,28.0,29.61,WSW,245,0.0,2.0,92,0.00,,,0.00,,2013-02-18 12:11:00,
2013-02-18 06:22:00,30.0,28.0,29.61,West,263,0.0,2.0,91,0.00,,,0.00,,2013-02-18 12:22:00,
2013-02-18 06:32:00,30.0,28.0,29.62,WSW,240,0.0,2.0,91,0.00,,,0.00,,2013-02-18 12:32:00,
2013-02-18 06:42:00,30.0,28.0,29.62,WSW,240,0.0,2.0,91,0.00,,,0.00,,2013-02-18 12:42:00,
2013-02-18 06:53:00,29.0,26.0,29.62,WSW,242,0.0,1.0,90,0.00,,,0.00,,2013-02-18 12:53:00,
2013-02-18 07:02:00,30.0,28.0,29.62,West,274,0.0,1.0,92,0.00,,,0.00,,2013-02-18 13:02:00,
2013-02-18 07:12:00,30.0,28.0,29.62,West,274,0.0,1.0,92,0.00,,,0.00,,2013-02-18 13:12:00,
2013-02-18 07:22:00,30.0,28.0,29.62,West,274,0.0,1.0,92,0.00,,,0.00,,2013-02-18 13:22:00,
2013-02-18 07:32:00,31.0,29.0,29.63,WSW,238,0.0,2.0,91,0.00,,,0.00,,2013-02-18 13:32:00,
2013-02-18 07:42:00,31.0,29.0,29.63,WSW,238,0.0,2.0,91,0.00,,,0.00,,2013-02-18 13:42:00,
2013-02-18 07:53:00,30.0,28.0,29.65,SW,219,1.0,3.0,92,0.00,,,0.00,,2013-02-18 13:53:00,
2013-02-18 08:02:00,30.0,28.0,29.64,WNW,297,1.0,3.0,92,0.00,,,0.00,,2013-02-18 14:02:00,
2013-02-18 08:11:00,30.0,28.0,29.64,WNW,297,1.0,3.0,92,0.00,,,0.00,,2013-02-18 14:11:00,
2013-02-18 08:22:00,32.0,29.0,29.63,NW,309,1.0,3.0,90,0.00,,,0.00,,2013-02-18 14:22:00,
2013-02-18 08:33:00,32.0,30.0,29.64,NW,318,1.0,4.0,91,0.00,,,0.00,,2013-02-18 14:33:00,
2013-02-18 08:42:00,32.0,30.0,29.64,NW,318,1.0,4.0,91,0.00,,,0.00,,2013-02-18 14:42:00,
2013-02-18 08:53:00,33.0,30.0,29.64,NW,316,1.0,5.0,90,0.00,,,0.00,,2013-02-18 14:53:00,
2013-02-18 09:02:00,33.0,30.0,29.65,NW,309,0.0,4.0,89,0.00,,,0.00,,2013-02-18 15:02:00,
2013-02-18 09:11:00,33.0,30.0,29.65,NW,309,0.0,4.0,89,0.00,,,0.00,,2013-02-18 15:11:00,
2013-02-18 09:22:00,34.0,31.0,29.65,WNW,295,1.0,3.0,89,0.00,,,0.00,,2013-02-18 15:22:00,
2013-02-18 09:32:00,34.0,31.0,29.66,NW,308,0.0,3.0,89,0.00,,,0.00,,2013-02-18 15:32:00,
2013-02-18 09:42:00,34.0,31.0,29.66,NW,308,0.0,3.0,89,0.00,,,0.00,,2013-02-18 15:42:00,
2013-02-18 09:52:00,35.0,32.0,29.66,NW,304,1.0,4.0,88,0.00,,,0.00,,2013-02-18 15:52:00,
2013-02-18 10:02:00,36.0,33.0,29.66,WNW,287,2.0,6.0,87,0.00,,,0.00,,2013-02-18 16:02:00,
2013-02-18 10:12:00,36.0,33.0,29.66,WNW,287,2.0,6.0,87,0.00,,,0.00,,2013-02-18 16:12:00,
2013-02-18 10:22:00,36.0,33.0,29.66,NW,317,1.0,5.0,87,0.00,,,0.00,,2013-02-18 16:22:00,
2013-02-18 10:32:00,35.0,32.0,29.67,NW,304,1.0,3.0,87,0.00,,,0.00,,2013-02-18 16:32:00,
2013-02-18 10:42:00,35.0,32.0,29.67,NW,304,1.0,3.0,87,0.00,,,0.00,,2013-02-18 16:42:00,
2013-02-18 10:53:00,34.0,30.0,29.68,NW,326,9.0,17.0,85,0.00,,,0.00,,2013-02-18 16:53:00,
2013-02-18 11:03:00,31.0,28.0,29.69,NW,311,9.0,17.0,88,0.00,,,0.00,,2013-02-18 17:03:00,
2013-02-18 11:12:00,31.0,28.0,29.69,NW,311,9.0,17.0,88,0.00,,,0.00,,2013-02-18 17:12:00,
2013-02-18 11:22:00,30.0,26.0,29.70,NW,312,11.0,17.0,85,0.00,,,0.00,,2013-02-18 17:22:00,
2013-02-18 11:32:00,29.0,25.0,29.70,WNW,295,10.0,19.0,84,0.00,,,0.00,,2013-02-18 17:32:00,
2013-02-18 11:42:00,29.0,25.0,29.70,WNW,295,10.0,19.0,84,0.00,,,0.00,,2013-02-18 17:42:00,
2013-02-18 11:53:00,29.0,25.0,29.70,North,349,9.0,17.0,84,0.00,,,0.00,,2013-02-18 17:53:00,
2013-02-18 12:02:00,28.0,23.0,29.71,NW,314,10.0,17.0,82,0.00,,,0.00,,2013-02-18 18:02:00,
2013-02-18 12:12:00,28.0,23.0,29.71,NW,314,10.0,17.0,82,0.00,,,0.00,,2013-02-18 18:12:00,
2013-02-18 12:32:00,27.0,22.0,29.72,NNW,327,9.0,21.0,82,0.00,,,0.00,,2013-02-18 18:32:00,
2013-02-18 12:42:00,27.0,22.0,29.72,NNW,327,9.0,21.0,82,0.00,,,0.00,,2013-02-18 18:42:00,
2013-02-18 12:53:00,27.0,23.0,29.73,NW,312,5.0,15.0,83,0.00,,,0.00,,2013-02-18 18:53:00,
2013-02-18 13:02:00,26.0,21.0,29.73,NW,319,9.0,16.0,81,0.00,,,0.00,,2013-02-18 19:02:00,
2013-02-18 13:12:00,26.0,21.0,29.73,NW,319,9.0,16.0,81,0.00,,,0.00,,2013-02-18 19:12:00,
2013-02-18 13:22:00,26.0,21.0,29.74,NNW,347,7.0,17.0,82,0.00,,,0.00,,2013-02-18 19:22:00,
2013-02-18 13:33:00,26.0,21.0,29.74,WNW,297,8.0,14.0,81,0.00,,,0.00,,2013-02-18 19:33:00,
2013-02-18 13:42:00,26.0,21.0,29.74,WNW,297,8.0,14.0,81,0.00,,,0.00,,2013-02-18 19:42:00,
2013-02-18 13:53:00,26.0,20.0,29.75,WNW,297,10.0,17.0,77,0.00,,,0.00,,2013-02-18 19:53:00,
2013-02-18 14:02:00,25.0,19.0,29.76,NW,320,12.0,19.0,76,0.00,,,0.00,,2013-02-18 20:02:00,
2013-02-18 14:12:00,25.0,19.0,29.76,NW,320,12.0,19.0,76,0.00,,,0.00,,2013-02-18 20:12:00,
2013-02-18 14:23:00,24.0,18.0,29.77,NW,312,9.0,20.0,76,0.00,,,0.00,,2013-02-18 20:23:00,
2013-02-18 14:33:00,24.0,17.0,29.78,WNW,295,10.0,18.0,75,0.00,,,0.00,,2013-02-18 20:33:00,
2013-02-18 14:42:00,24.0,17.0,29.78,WNW,295,10.0,18.0,75,0.00,,,0.00,,2013-02-18 20:42:00,
2013-02-18 14:53:00,23.0,17.0,29.78,NNW,335,9.0,18.0,76,0.00,,,0.00,,2013-02-18 20:53:00,
2013-02-18 15:03:00,24.0,17.0,29.78,North,5,8.0,18.0,75,0.00,,,0.00,,2013-02-18 21:03:00,
2013-02-18 15:12:00,24.0,17.0,29.78,North,5,8.0,18.0,75,0.00,,,0.00,,2013-02-18 21:12:00,
2013-02-18 15:22:00,23.0,17.0,29.79,NNW,333,8.0,15.0,77,0.00,,,0.00,,2013-02-18 21:22:00,
2013-02-18 15:32:00,22.0,16.0,29.80,NW,321,11.0,18.0,76,0.00,,,0.00,,2013-02-18 21:32:00,
2013-02-18 15:42:00,22.0,16.0,29.80,NW,321,11.0,18.0,76,0.00,,,0.00,,2013-02-18 21:42:00,
2013-02-18 15:53:00,21.0,15.0,29.81,WNW,297,8.0,16.0,77,0.00,,,0.00,,2013-02-18 21:53:00,
2013-02-18 16:02:00,22.0,15.0,29.81,NNW,330,7.0,16.0,75,0.00,,,0.00,,2013-02-18 22:02:00,
2013-02-18 16:12:00,21.0,14.0,29.82,NW,326,7.0,19.0,75,0.00,,,0.00,,2013-02-18 22:12:00,
2013-02-18 16:22:00,21.0,14.0,29.82,NW,326,7.0,19.0,75,0.00,,,0.00,,2013-02-18 22:22:00,
2013-02-18 16:33:00,21.0,14.0,29.82,North,6,8.0,13.0,75,0.00,,,0.00,,2013-02-18 22:33:00,
2013-02-18 16:43:00,21.0,14.0,29.82,North,6,8.0,13.0,75,0.00,,,0.00,,2013-02-18 22:43:00,
2013-02-18 16:53:00,20.0,14.0,29.82,West,281,8.0,19.0,77,0.00,,,0.00,,2013-02-18 22:53:00,
2013-02-18 17:02:00,20.0,13.0,29.82,North,349,9.0,16.0,75,0.00,,,0.00,,2013-02-18 23:02:00,
2013-02-18 17:12:00,20.0,13.0,29.82,North,349,9.0,16.0,75,0.00,,,0.00,,2013-02-18 23:12:00,
2013-02-18 17:22:00,20.0,13.0,29.82,North,349,9.0,16.0,75,0.00,,,0.00,,2013-02-18 23:22:00,
2013-02-18 17:33:00,18.0,11.0,29.83,WNW,300,8.0,22.0,75,0.00,,,0.00,,2013-02-18 23:33:00,
2013-02-18 17:42:00,18.0,11.0,29.83,WNW,300,8.0,22.0,75,0.00,,,0.00,,2013-02-18 23:42:00,
2013-02-18 17:53:00,17.0,10.0,29.84,NNW,328,8.0,22.0,74,0.00,,,0.00,,2013-02-18 23:53:00,
2013-02-18 18:03:00,16.0,10.0,29.85,NNW,343,8.0,17.0,76,0.00,,,0.00,,2013-02-19 00:03:00,
2013-02-18 18:12:00,16.0,10.0,29.85,NNW,343,8.0,17.0,76,0.00,,,0.00,,2013-02-19 00:12:00,
2013-02-18 18:22:00,16.0,9.0,29.85,WNW,288,10.0,18.0,74,0.00,,,0.00,,2013-02-19 00:22:00,
2013-02-18 18:43:00,15.0,10.0,29.86,NW,317,7.0,15.0,80,0.00,,,0.00,,2013-02-19 00:43:00,
2013-02-18 18:54:00,15.0,9.0,29.87,NNW,335,7.0,18.0,77,0.00,,,0.00,,2013-02-19 00:54:00,
2013-02-18 19:03:00,14.0,8.0,29.88,West,273,8.0,13.0,77,0.00,,,0.00,,2013-02-19 01:03:00,
2013-02-18 19:14:00,14.0,8.0,29.88,West,273,8.0,13.0,77,0.00,,,0.00,,2013-02-19 01:14:00,
2013-02-18 19:24:00,14.0,8.0,29.88,WNW,290,7.0,17.0,76,0.00,,,0.00,,2013-02-19 01:24:00,
2013-02-18 19:34:00,13.0,6.0,29.89,WNW,297,12.0,21.0,74,0.00,,,0.00,,2013-02-19 01:34:00,
2013-02-18 19:43:00,13.0,6.0,29.89,WNW,297,12.0,21.0,74,0.00,,,0.00,,2013-02-19 01:43:00,
2013-02-18 19:56:00,13.0,7.0,29.90,NW,308,8.0,16.0,78,0.00,,,0.00,,2013-02-19 01:56:00,
2013-02-18 20:03:00,13.0,9.0,29.90,NW,312,6.0,16.0,83,0.00,,,0.00,,2013-02-19 02:03:00,
2013-02-18 20:13:00,13.0,9.0,29.90,NW,312,6.0,16.0,83,0.00,,,0.00,,2013-02-19 02:13:00,
2013-02-18 20:23:00,12.0,8.0,29.90,NNW,331,8.0,16.0,83,0.00,,,0.00,,2013-02-19 02:23:00,
2013-02-18 20:34:00,12.0,8.0,29.90,WNW,297,8.0,16.0,83,0.00,,,0.00,,2013-02-19 02:34:00,
2013-02-18 20:42:00,12.0,8.0,29.90,WNW,297,8.0,16.0,83,0.00,,,0.00,,2013-02-19 02:42:00,
2013-02-18 20:55:00,11.0,6.0,29.91,NNW,344,8.0,15.0,80,0.00,,,0.00,,2013-02-19 02:55:00,
2013-02-18 21:06:00,11.0,6.0,29.92,NW,324,10.0,17.0,81,0.00,,,0.00,,2013-02-19 03:06:00,
2013-02-18 21:23:00,11.0,6.0,29.92,North,6,11.0,18.0,78,0.00,,,0.00,,2013-02-19 03:23:00,
2013-02-18 21:33:00,11.0,6.0,29.93,NNW,335,10.0,20.0,78,0.00,,,0.00,,2013-02-19 03:33:00,
2013-02-18 21:44:00,11.0,6.0,29.93,NNW,335,10.0,20.0,78,0.00,,,0.00,,2013-02-19 03:44:00,
2013-02-18 22:02:00,10.0,5.0,29.93,WNW,300,9.0,22.0,78,0.00,,,0.00,,2013-02-19 04:02:00,
2013-02-18 22:14:00,10.0,5.0,29.93,WNW,300,9.0,22.0,78,0.00,,,0.00,,2013-02-19 04:14:00,
2013-02-18 22:23:00,10.0,5.0,29.93,NNW,344,9.0,23.0,78,0.00,,,0.00,,2013-02-19 04:23:00,
2013-02-18 22:33:00,9.0,4.0,29.94,NW,304,12.0,19.0,79,0.00,,,0.00,,2013-02-19 04:33:00,
2013-02-18 22:55:00,9.0,4.0,29.94,NW,304,12.0,19.0,79,0.00,,,0.00,,2013-02-19 04:55:00,
2013-02-18 23:02:00,8.0,3.0,29.95,WNW,297,9.0,18.0,80,0.00,,,0.00,,2013-02-19 05:02:00,
2013-02-18 23:12:00,8.0,3.0,29.95,WNW,297,9.0,18.0,80,0.00,,,0.00,,2013-02-19 05:12:00,
2013-02-18 23:22:00,6.0,1.0,29.96,NW,319,11.0,25.0,78,0.00,,,0.00,,2013-02-19 05:22:00,
2013-02-18 23:32:00,6.0,1.0,29.97,North,349,11.0,20.0,79,0.00,,,0.00,,2013-02-19 05:32:00,
2013-02-18 23:43:00,6.0,1.0,29.97,North,349,11.0,20.0,79,0.00,,,0.00,,2013-02-19 05:43:00,
2013-02-18 23:52:00,6.0,1.0,29.97,North,349,11.0,20.0,79,0.00,,,0.00,,2013-02-19 05:52:00,